createdAt,value
2022-08-20T00:04:21.394Z,101275.94
2022-08-20T00:09:23.224Z,101282.97
2022-08-20T00:14:24.735Z,101278.81
2022-08-20T00:19:27.108Z,101276.13
2022-08-20T00:24:28.737Z,101262.69
2022-08-20T00:29:30.473Z,101256.59
2022-08-20T00:34:32.032Z,101246.97
2022-08-20T00:39:33.662Z,101251.09
2022-08-20T00:44:35.861Z,101250.19
2022-08-20T00:49:37.898Z,101245.19
2022-08-20T00:54:49.671Z,101261.41
2022-08-20T00:59:52.532Z,101248.34
2022-08-20T01:04:55.710Z,101252.06
2022-08-20T01:09:58.830Z,101249.81
2022-08-20T01:15:03.719Z,101243.13
2022-08-20T01:20:24.807Z,101252.66
2022-08-20T01:25:53.252Z,101247.56
2022-08-20T01:30:55.029Z,101239.94
2022-08-20T01:35:56.721Z,101251.41
2022-08-20T01:41:45.252Z,101250.72
2022-08-20T01:46:49.918Z,101251.41
2022-08-20T01:51:57.776Z,101252.75
2022-08-20T01:57:10.340Z,101254.47
2022-08-20T02:02:13.239Z,101260.66
2022-08-20T02:07:17.492Z,101265.94
2022-08-20T02:12:19.540Z,101267.97
2022-08-20T02:17:23.142Z,101253.72
2022-08-20T02:22:34.990Z,101280.50
2022-08-20T02:27:39.266Z,101286.59
2022-08-20T02:32:41.987Z,101293.50
2022-08-20T02:37:45.064Z,101293.56
2022-08-20T02:42:47.674Z,101286.44
2022-08-20T02:47:54.237Z,101285.50
2022-08-20T02:52:56.379Z,101283.63
2022-08-20T02:57:59.947Z,101287.06
2022-08-20T03:03:02.149Z,101274.53
2022-08-20T03:08:07.055Z,101273.47
2022-08-20T03:13:12.394Z,101283.72
2022-08-20T03:18:16.799Z,101269.03
2022-08-20T03:23:21.226Z,101287.34
2022-08-20T03:28:22.965Z,101281.38
2022-08-20T03:33:24.539Z,101287.53
2022-08-20T03:38:32.854Z,101280.50
2022-08-20T03:43:35.508Z,101275.31
2022-08-20T03:48:38.482Z,101274.31
2022-08-20T03:53:40.176Z,101279.59
2022-08-20T03:58:41.734Z,101288.38
2022-08-20T04:03:43.374Z,101287.53
2022-08-20T04:08:44.958Z,101292.09
2022-08-20T04:13:46.585Z,101286.84
2022-08-20T04:19:01.814Z,101293.78
2022-08-20T04:24:06.026Z,101294.50
2022-08-20T04:29:08.132Z,101303.28
2022-08-20T04:34:09.687Z,101304.69
2022-08-20T04:39:11.252Z,101317.91
2022-08-20T04:44:13.079Z,101312.66
2022-08-20T04:49:14.703Z,101327.28
2022-08-20T04:54:16.442Z,101334.13
2022-08-20T04:59:18.067Z,101329.34
2022-08-20T05:04:19.575Z,101329.28
2022-08-20T05:09:21.146Z,101334.97
2022-08-20T05:14:22.681Z,101328.47
2022-08-20T05:19:24.345Z,101327.22
2022-08-20T05:24:26.145Z,101323.13
2022-08-20T05:29:28.518Z,101331.38
2022-08-20T05:34:30.100Z,101326.56
2022-08-20T05:39:35.466Z,101318.03
2022-08-20T05:44:39.214Z,101320.03
2022-08-20T05:49:40.741Z,101328.91
2022-08-20T05:54:42.241Z,101341.06
2022-08-20T05:59:43.827Z,101327.25
2022-08-20T06:04:45.371Z,101333.28
2022-08-20T06:09:47.109Z,101325.06
2022-08-20T06:14:48.770Z,101352.97
2022-08-20T06:19:50.978Z,101351.78
2022-08-20T06:24:53.082Z,101346.47
2022-08-20T06:29:54.965Z,101357.47
2022-08-20T06:34:56.639Z,101362.09
2022-08-20T06:40:03.111Z,101357.81
2022-08-20T06:45:05.729Z,101362.84
2022-08-20T06:50:16.851Z,101360.09
2022-08-20T06:55:18.628Z,101362.31
2022-08-20T07:00:20.682Z,101346.97
2022-08-20T07:05:22.485Z,101359.00
2022-08-20T07:10:25.827Z,101353.50
2022-08-20T07:15:27.750Z,101368.53
2022-08-20T07:20:31.907Z,101373.09
2022-08-20T07:25:33.915Z,101381.94
2022-08-20T07:30:56.640Z,101376.78
2022-08-20T07:36:02.038Z,101392.84
2022-08-20T07:41:13.469Z,101391.31
2022-08-20T07:46:20.815Z,101392.69
2022-08-20T07:51:23.361Z,101402.66
2022-08-20T07:56:25.030Z,101399.19
2022-08-20T08:01:30.752Z,101394.09
2022-08-20T08:06:45.294Z,101399.34
2022-08-20T08:11:50.219Z,101400.72
2022-08-20T08:16:55.179Z,101413.31
2022-08-20T08:21:57.444Z,101415.25
2022-08-20T08:27:00.570Z,101419.78
2022-08-20T08:32:06.187Z,101421.34
2022-08-20T08:37:07.863Z,101429.53
2022-08-20T08:42:44.023Z,101430.88
2022-08-20T08:47:46.022Z,101430.63
2022-08-20T08:52:52.375Z,101443.22
2022-08-20T08:57:56.738Z,101420.72
2022-08-20T09:03:01.304Z,101454.78
2022-08-20T09:08:06.731Z,101458.16
2022-08-20T09:13:09.003Z,101455.81
2022-08-20T09:18:10.651Z,101452.38
2022-08-20T09:23:12.605Z,101454.19
2022-08-20T09:28:15.410Z,101461.13
2022-08-20T09:33:17.480Z,101446.25
2022-08-20T09:38:19.097Z,101452.44
2022-08-20T09:43:20.762Z,101449.09
2022-08-20T09:48:29.595Z,101454.63
2022-08-20T09:53:34.622Z,101458.59
2022-08-20T09:58:47.239Z,101454.66
2022-08-20T10:03:49.788Z,101451.53
2022-08-20T10:08:51.357Z,101444.31
2022-08-20T10:13:52.991Z,101438.00
2022-08-20T10:18:54.614Z,101451.38
2022-08-20T10:23:56.701Z,101448.97
2022-08-20T10:28:58.305Z,101447.25
2022-08-20T10:33:59.841Z,101454.69
2022-08-20T10:39:01.528Z,101456.56
2022-08-20T10:44:04.406Z,101462.94
2022-08-20T10:49:06.337Z,101456.91
2022-08-20T10:54:08.254Z,101472.13
2022-08-20T10:59:14.402Z,101466.41
2022-08-20T11:04:16.053Z,101482.56
2022-08-20T11:09:17.608Z,101478.50
2022-08-20T11:14:19.357Z,101478.22
2022-08-20T11:19:21.037Z,101488.75
2022-08-20T11:24:22.929Z,101496.66
2022-08-20T11:29:24.842Z,101491.34
2022-08-20T11:34:26.559Z,101500.41
2022-08-20T11:39:28.306Z,101503.59
2022-08-20T11:44:29.894Z,101504.50
2022-08-20T11:49:34.483Z,101498.97
2022-08-20T11:54:40.347Z,101499.66
2022-08-20T11:59:42.269Z,101498.66
2022-08-20T12:04:44.408Z,101501.09
2022-08-20T12:09:51.067Z,101494.06
2022-08-20T12:14:55.432Z,101484.44
2022-08-20T12:19:59.438Z,101483.31
2022-08-20T12:25:01.223Z,101492.13
2022-08-20T12:30:07.397Z,101499.00
2022-08-20T12:35:10.692Z,101499.72
2022-08-20T12:40:16.028Z,101493.56
2022-08-20T12:45:18.447Z,101505.63
2022-08-20T12:50:24.726Z,101501.50
2022-08-20T12:55:29.026Z,101503.28
2022-08-20T13:00:34.215Z,101510.22
2022-08-20T13:05:36.730Z,101511.75
2022-08-20T13:10:44.248Z,101516.47
2022-08-20T13:15:46.175Z,101512.91
2022-08-20T13:20:48.694Z,101504.56
2022-08-20T13:25:50.319Z,101504.13
2022-08-20T13:30:52.071Z,101500.16
2022-08-20T13:35:54.115Z,101509.81
2022-08-20T13:40:55.774Z,101508.75
2022-08-20T13:45:57.397Z,101503.25
2022-08-20T13:50:59.042Z,101496.00
2022-08-20T13:56:00.753Z,101489.84
2022-08-20T14:01:02.408Z,101508.50
2022-08-20T14:06:04.377Z,101498.88
2022-08-20T14:11:06.319Z,101506.75
2022-08-20T14:16:21.317Z,101501.00
2022-08-20T14:21:28.888Z,101504.63
2022-08-20T14:26:30.457Z,101518.41
2022-08-20T14:31:32.008Z,101510.84
2022-08-20T14:36:33.538Z,101517.50
2022-08-20T14:41:35.132Z,101513.78
2022-08-20T14:46:36.729Z,101512.25
2022-08-20T14:51:38.788Z,101514.38
2022-08-20T14:56:40.522Z,101514.63
2022-08-20T15:01:42.396Z,101509.94
2022-08-20T15:06:44.015Z,101510.81
2022-08-20T15:11:46.892Z,101509.88
2022-08-20T15:16:48.634Z,101517.78
2022-08-20T15:21:50.301Z,101514.38
2022-08-20T15:26:51.922Z,101515.31
2022-08-20T15:31:53.545Z,101531.59
2022-08-20T15:36:57.214Z,101527.75
2022-08-20T15:41:58.752Z,101529.06
2022-08-20T15:47:20.737Z,101532.53
2022-08-20T15:52:25.316Z,101528.38
2022-08-20T15:57:48.585Z,101539.38
2022-08-20T16:03:19.773Z,101546.25
2022-08-20T16:08:27.414Z,101544.41
2022-08-20T16:13:40.554Z,101553.34
2022-08-20T16:18:44.876Z,101549.47
2022-08-20T16:23:46.544Z,101561.81
2022-08-20T16:29:13.675Z,101553.06
2022-08-20T16:34:34.295Z,101558.19
2022-08-20T16:39:53.769Z,101558.09
2022-08-20T16:44:56.885Z,101563.22
2022-08-20T16:50:19.997Z,101566.53
2022-08-20T16:55:24.590Z,101576.00
2022-08-20T17:00:34.973Z,101574.47
2022-08-20T17:05:45.497Z,101582.31
2022-08-20T17:11:06.428Z,101574.22
2022-08-20T17:16:18.813Z,101593.00
2022-08-20T17:21:33.184Z,101591.81
2022-08-20T17:26:44.452Z,101596.84
2022-08-20T17:31:50.482Z,101583.97
2022-08-20T17:37:08.604Z,101610.59
2022-08-20T17:42:18.065Z,101596.13
2022-08-20T17:47:26.702Z,101611.22
2022-08-20T17:52:34.437Z,101591.94
2022-08-20T17:57:40.028Z,101607.75
2022-08-20T18:02:43.390Z,101606.94
2022-08-20T18:07:58.621Z,101612.25
2022-08-20T18:13:18.995Z,101616.31
2022-08-20T18:18:29.806Z,101609.66
2022-08-20T18:23:36.618Z,101603.75
2022-08-20T18:28:52.689Z,101612.66
2022-08-20T18:33:54.955Z,101613.31
2022-08-20T18:39:05.177Z,101619.63
2022-08-20T18:44:10.126Z,101613.56
2022-08-20T18:49:14.812Z,101616.63
2022-08-20T18:54:30.616Z,101611.59
2022-08-20T18:59:37.962Z,101615.63
2022-08-20T19:04:39.695Z,101614.75
2022-08-20T19:10:27.596Z,101611.88
2022-08-20T19:15:32.413Z,101619.75
2022-08-20T19:20:35.981Z,101617.69
2022-08-20T19:25:48.398Z,101618.50
2022-08-20T19:30:50.890Z,101616.13
2022-08-20T19:35:52.560Z,101618.50
2022-08-20T19:40:55.975Z,101621.66
2022-08-20T19:46:16.493Z,101623.66
2022-08-20T19:51:45.831Z,101630.34
2022-08-20T19:56:57.726Z,101626.97
2022-08-20T20:02:04.432Z,101622.31
2022-08-20T20:07:41.350Z,101629.88
2022-08-20T20:12:42.993Z,101612.50
2022-08-20T20:17:44.865Z,101617.13
2022-08-20T20:22:56.186Z,101612.19
2022-08-20T20:28:09.697Z,101614.38
2022-08-20T20:33:35.534Z,101614.47
2022-08-20T20:38:39.893Z,101611.41
2022-08-20T20:43:42.978Z,101619.53
2022-08-20T20:48:49.574Z,101619.00
2022-08-20T20:53:54.975Z,101613.34
2022-08-20T20:58:57.114Z,101613.38
2022-08-20T21:03:58.688Z,101609.34
2022-08-20T21:09:00.665Z,101608.75
2022-08-20T21:14:02.263Z,101615.94
2022-08-20T21:19:08.509Z,101611.91
2022-08-20T21:24:11.135Z,101605.25
2022-08-20T21:29:17.065Z,101597.59
2022-08-20T21:34:19.336Z,101603.22
2022-08-20T21:39:21.196Z,101599.06
2022-08-20T21:44:26.532Z,101603.34
2022-08-20T21:49:29.458Z,101607.06
2022-08-20T21:54:33.037Z,101605.53
2022-08-20T21:59:43.218Z,101593.59
2022-08-20T22:04:45.162Z,101592.59
2022-08-20T22:09:46.702Z,101592.75
2022-08-20T22:14:49.142Z,101600.00
2022-08-20T22:19:50.764Z,101586.19
2022-08-20T22:24:52.454Z,101591.59
2022-08-20T22:29:54.025Z,101586.69
2022-08-20T22:34:58.198Z,101592.22
2022-08-20T22:39:59.876Z,101595.03
2022-08-20T22:45:01.561Z,101598.00
2022-08-20T22:50:04.265Z,101594.97
2022-08-20T22:55:06.612Z,101584.69
2022-08-20T23:00:12.285Z,101584.00
2022-08-20T23:05:17.188Z,101585.31
2022-08-20T23:10:19.102Z,101575.13
2022-08-20T23:15:20.656Z,101578.84
2022-08-20T23:20:22.411Z,101572.13
2022-08-20T23:25:24.337Z,101576.53
2022-08-20T23:30:28.701Z,101560.78
2022-08-20T23:35:33.059Z,101554.84
2022-08-20T23:40:35.691Z,101557.72
2022-08-20T23:45:40.178Z,101558.69
2022-08-20T23:50:41.948Z,101562.47
2022-08-20T23:55:43.776Z,101557.19
